Strona główna
METAR-TAF:

METAR-TAF

Lotnisko :

Capital City Airport

Frankfort, Kentucky, Stany Zjednoczone

Szerokość geograficzna: 38-11-05N, Długość geograficzna: 084-54-12W, wysokość: 245 m

Aktualna obserwacja pogody

Raport powstał 23 minut temu, godzina 06:53 UTC
Wiatr 4 kt od wschód
Temperatura 21°C
Wilgotność 88%
Ciśnienie 1014 hPa
Widzialność: 16.1 km
Mało chmury na wysokości 4400 ft
Przerywane chmury na wysokości 5500 ft
Zachmurzenie całkowite na wysokości 7000 ft

METAR: KFFT 280653Z AUTO 08004KT 10SM FEW044 BKN055 OVC070 21/19 A2993 RMK AO2 RAB0557E22 SLP127 P0000 T02110189

czas: 03:16 (07:16 UTC)


TAF: brakujący

Obserwacja i prognoza pogody dla ponad 4000 lotnisk (raport METAR i TAF).

Dostępne stacje oznaczono żółtymi i czerwonymi punktami na mapie.

Najedź kursorem aby zobaczyć nazwę stacji.

Kliknij aby zobaczyć obserwacje i prognozy pogody.

Aby zmienić mapę: kliknij na zielony przycisk z czarnym krzyżykiem, aby powiększyć; na zielony przycisk z myślnikiem, aby pomniejszyć; na zielone strzałki, aby przejść do map sąsiednich.


METAR-TAF: